sensor_id;sensor_type;location;lat;lon;timestamp;pressure;altitude;pressure_sealevel;temperature;humidity
55675;BME280;41562;44.330;23.802;2023-01-31T00:01:38;99733.38;;;2.38;82.15
55675;BME280;41562;44.330;23.802;2023-01-31T00:04:09;99734.88;;;2.46;82.55
55675;BME280;41562;44.330;23.802;2023-01-31T00:06:43;99709.41;;;2.51;84.40
55675;BME280;41562;44.330;23.802;2023-01-31T00:09:11;99717.47;;;2.33;82.35
55675;BME280;41562;44.330;23.802;2023-01-31T00:11:39;99716.75;;;2.26;81.63
55675;BME280;41562;44.330;23.802;2023-01-31T00:14:07;99716.44;;;2.34;84.81
55675;BME280;41562;44.330;23.802;2023-01-31T00:16:34;99710.56;;;2.43;82.62
55675;BME280;41562;44.330;23.802;2023-01-31T00:19:03;99705.75;;;2.52;80.50
55675;BME280;41562;44.330;23.802;2023-01-31T00:21:31;99703.34;;;2.39;81.30
55675;BME280;41562;44.330;23.802;2023-01-31T00:23:59;99699.41;;;2.53;86.90
55675;BME280;41562;44.330;23.802;2023-01-31T00:26:29;99708.25;;;2.59;81.85
55675;BME280;41562;44.330;23.802;2023-01-31T00:28:58;99695.16;;;2.64;79.42
55675;BME280;41562;44.330;23.802;2023-01-31T00:31:27;99693.34;;;2.53;79.77
55675;BME280;41562;44.330;23.802;2023-01-31T00:33:56;99690.47;;;2.42;82.93
55675;BME280;41562;44.330;23.802;2023-01-31T00:36:26;99692.06;;;2.55;80.65
55675;BME280;41562;44.330;23.802;2023-01-31T00:38:55;99674.88;;;2.41;79.73
55675;BME280;41562;44.330;23.802;2023-01-31T00:41:25;99678.56;;;2.40;79.18
55675;BME280;41562;44.330;23.802;2023-01-31T00:43:53;99678.22;;;2.36;83.50
55675;BME280;41562;44.330;23.802;2023-01-31T00:46:21;99677.75;;;2.51;81.10
55675;BME280;41562;44.330;23.802;2023-01-31T00:48:48;99679.03;;;2.37;78.13
55675;BME280;41562;44.330;23.802;2023-01-31T00:51:17;99678.78;;;2.50;78.24
55675;BME280;41562;44.330;23.802;2023-01-31T00:53:45;99679.56;;;2.62;81.75
55675;BME280;41562;44.330;23.802;2023-01-31T00:56:15;99685.63;;;2.63;80.67
55675;BME280;41562;44.330;23.802;2023-01-31T00:58:43;99681.88;;;2.47;79.13
55675;BME280;41562;44.330;23.802;2023-01-31T01:01:15;99684.28;;;2.37;78.26
55675;BME280;41562;44.330;23.802;2023-01-31T01:03:44;99693.25;;;2.36;79.51
55675;BME280;41562;44.330;23.802;2023-01-31T01:06:13;99697.50;;;2.25;79.62
55675;BME280;41562;44.330;23.802;2023-01-31T01:08:41;99706.09;;;2.21;79.48
55675;BME280;41562;44.330;23.802;2023-01-31T01:11:12;99706.09;;;2.32;78.37
55675;BME280;41562;44.330;23.802;2023-01-31T01:13:40;99706.53;;;2.41;84.58
55675;BME280;41562;44.330;23.802;2023-01-31T01:16:09;99708.63;;;2.39;82.92
55675;BME280;41562;44.330;23.802;2023-01-31T01:18:37;99711.47;;;2.37;78.21
55675;BME280;41562;44.330;23.802;2023-01-31T01:21:13;99714.13;;;2.26;79.28
55675;BME280;41562;44.330;23.802;2023-01-31T01:23:42;99703.91;;;2.29;80.02
55675;BME280;41562;44.330;23.802;2023-01-31T01:26:29;99708.16;;;2.42;81.16
55675;BME280;41562;44.330;23.802;2023-01-31T01:28:58;99708.38;;;2.29;78.39
55675;BME280;41562;44.330;23.802;2023-01-31T01:31:26;99701.03;;;2.31;78.29
55675;BME280;41562;44.330;23.802;2023-01-31T01:33:59;99706.75;;;2.28;83.13
55675;BME280;41562;44.330;23.802;2023-01-31T01:36:27;99701.25;;;2.41;81.23
55675;BME280;41562;44.330;23.802;2023-01-31T01:38:54;99698.75;;;2.23;79.30
55675;BME280;41562;44.330;23.802;2023-01-31T01:41:22;99703.91;;;2.18;79.14
55675;BME280;41562;44.330;23.802;2023-01-31T01:43:52;99703.34;;;2.39;82.82
55675;BME280;41562;44.330;23.802;2023-01-31T01:46:29;99701.84;;;2.43;81.13
55675;BME280;41562;44.330;23.802;2023-01-31T01:49:03;99704.94;;;2.17;79.81
55675;BME280;41562;44.330;23.802;2023-01-31T01:51:32;99701.16;;;2.24;79.94
55675;BME280;41562;44.330;23.802;2023-01-31T01:54:04;99707.00;;;2.38;85.75
55675;BME280;41562;44.330;23.802;2023-01-31T01:56:36;99706.31;;;2.42;81.94
55675;BME280;41562;44.330;23.802;2023-01-31T01:59:20;99705.84;;;2.11;80.96
55675;BME280;41562;44.330;23.802;2023-01-31T02:01:51;99699.66;;;2.05;81.66
55675;BME280;41562;44.330;23.802;2023-01-31T02:04:28;99702.31;;;2.17;82.75
55675;BME280;41562;44.330;23.802;2023-01-31T02:06:57;99705.63;;;2.24;81.74
55675;BME280;41562;44.330;23.802;2023-01-31T02:10:07;99707.69;;;2.22;81.38
55675;BME280;41562;44.330;23.802;2023-01-31T02:12:32;99694.38;;;2.17;82.33
55675;BME280;41562;44.330;23.802;2023-01-31T02:15:01;99688.06;;;2.29;87.34
55675;BME280;41562;44.330;23.802;2023-01-31T02:17:28;99693.13;;;2.31;82.47
55675;BME280;41562;44.330;23.802;2023-01-31T02:20:11;99691.84;;;2.22;82.34
55675;BME280;41562;44.330;23.802;2023-01-31T02:31:29;99686.47;;;1.93;85.62
55675;BME280;41562;44.330;23.802;2023-01-31T02:34:09;99688.78;;;2.13;91.15
55675;BME280;41562;44.330;23.802;2023-01-31T02:36:46;99701.16;;;2.24;88.99
55675;BME280;41562;44.330;23.802;2023-01-31T02:41:51;99720.97;;;2.03;86.89
55675;BME280;41562;44.330;23.802;2023-01-31T02:44:43;99713.53;;;2.24;92.34
55675;BME280;41562;44.330;23.802;2023-01-31T02:53:07;99719.84;;;1.99;88.23
55675;BME280;41562;44.330;23.802;2023-01-31T02:55:42;99708.97;;;2.19;95.39
55675;BME280;41562;44.330;23.802;2023-01-31T02:58:12;99724.78;;;1.96;88.49
55675;BME280;41562;44.330;23.802;2023-01-31T03:00:43;99718.81;;;1.89;87.89
55675;BME280;41562;44.330;23.802;2023-01-31T03:03:18;99725.44;;;1.91;87.94
55675;BME280;41562;44.330;23.802;2023-01-31T03:08:43;99721.91;;;2.09;87.79
55675;BME280;41562;44.330;23.802;2023-01-31T03:11:11;99742.44;;;2.07;86.97
55675;BME280;41562;44.330;23.802;2023-01-31T03:14:04;99727.03;;;1.92;91.95
55675;BME280;41562;44.330;23.802;2023-01-31T03:19:32;99737.00;;;1.90;87.32
55675;BME280;41562;44.330;23.802;2023-01-31T03:22:08;99743.34;;;1.89;87.92
55675;BME280;41562;44.330;23.802;2023-01-31T03:24:38;99746.31;;;2.05;91.21
55675;BME280;41562;44.330;23.802;2023-01-31T03:27:10;99753.00;;;2.19;95.55
55675;BME280;41562;44.330;23.802;2023-01-31T03:29:41;99746.19;;;1.99;88.61
55675;BME280;41562;44.330;23.802;2023-01-31T03:32:19;99736.66;;;1.87;88.20
55675;BME280;41562;44.330;23.802;2023-01-31T03:34:47;99739.78;;;1.95;88.15
55675;BME280;41562;44.330;23.802;2023-01-31T03:37:21;99751.47;;;1.99;90.51
55675;BME280;41562;44.330;23.802;2023-01-31T03:40:09;99758.09;;;1.90;89.55
55675;BME280;41562;44.330;23.802;2023-01-31T03:42:49;99766.34;;;1.82;89.55
55675;BME280;41562;44.330;23.802;2023-01-31T03:45:47;99761.09;;;2.06;95.08
55675;BME280;41562;44.330;23.802;2023-01-31T03:48:17;99768.91;;;2.00;90.05
55675;BME280;41562;44.330;23.802;2023-01-31T03:50:56;99787.09;;;1.90;90.06
55675;BME280;41562;44.330;23.802;2023-01-31T03:53:31;99773.34;;;1.88;93.41
55675;BME280;41562;44.330;23.802;2023-01-31T03:56:13;99783.13;;;2.11;90.31
55675;BME280;41562;44.330;23.802;2023-01-31T03:58:46;99784.00;;;1.93;89.31
55675;BME280;41562;44.330;23.802;2023-01-31T04:01:17;99792.81;;;1.87;89.71
55675;BME280;41562;44.330;23.802;2023-01-31T04:04:39;99784.81;;;1.94;93.54
55675;BME280;41562;44.330;23.802;2023-01-31T04:06:46;99782.44;;;2.16;91.36
55675;BME280;41562;44.330;23.802;2023-01-31T04:09:15;99774.81;;;1.84;90.45
55675;BME280;41562;44.330;23.802;2023-01-31T04:11:48;99784.00;;;1.93;89.76
55675;BME280;41562;44.330;23.802;2023-01-31T04:14:16;99778.19;;;2.03;94.14
55675;BME280;41562;44.330;23.802;2023-01-31T04:16:44;99788.81;;;1.96;93.77
55675;BME280;41562;44.330;23.802;2023-01-31T04:19:11;99800.44;;;1.77;90.53
55675;BME280;41562;44.330;23.802;2023-01-31T04:21:39;99804.22;;;1.70;90.19
55675;BME280;41562;44.330;23.802;2023-01-31T04:24:06;99800.97;;;1.97;100.00
55675;BME280;41562;44.330;23.802;2023-01-31T04:26:34;99802.38;;;2.12;100.00
55675;BME280;41562;44.330;23.802;2023-01-31T04:29:02;99811.88;;;1.89;90.60
55675;BME280;41562;44.330;23.802;2023-01-31T04:31:29;99800.59;;;1.82;90.83
55675;BME280;41562;44.330;23.802;2023-01-31T04:33:57;99807.63;;;1.88;93.07
55675;BME280;41562;44.330;23.802;2023-01-31T04:36:24;99807.16;;;1.91;94.62
55675;BME280;41562;44.330;23.802;2023-01-31T04:38:52;99806.13;;;1.92;90.35
55675;BME280;41562;44.330;23.802;2023-01-31T04:41:19;99800.69;;;5.17;93.16
55675;BME280;41562;44.330;23.802;2023-01-31T04:43:47;99815.22;;;7.23;77.50
55675;BME280;41562;44.330;23.802;2023-01-31T04:46:14;99815.94;;;7.76;68.93
55675;BME280;41562;44.330;23.802;2023-01-31T04:48:41;99823.31;;;7.53;70.31
55675;BME280;41562;44.330;23.802;2023-01-31T04:51:09;99820.50;;;6.71;70.47
55675;BME280;41562;44.330;23.802;2023-01-31T04:53:37;99822.44;;;6.80;80.02
55675;BME280;41562;44.330;23.802;2023-01-31T04:56:05;99829.88;;;6.83;81.16
55675;BME280;41562;44.330;23.802;2023-01-31T04:58:33;99833.84;;;6.12;75.21
55675;BME280;41562;44.330;23.802;2023-01-31T05:01:02;99854.63;;;7.36;69.15
55675;BME280;41562;44.330;23.802;2023-01-31T05:03:29;99843.22;;;7.41;73.12
55675;BME280;41562;44.330;23.802;2023-01-31T05:05:58;99837.25;;;6.71;67.65
55675;BME280;41562;44.330;23.802;2023-01-31T05:08:29;99836.75;;;4.47;73.72
55675;BME280;41562;44.330;23.802;2023-01-31T05:11:02;99843.72;;;3.11;79.78
55675;BME280;41562;44.330;23.802;2023-01-31T05:13:35;99829.84;;;2.34;85.18
55675;BME280;41562;44.330;23.802;2023-01-31T05:16:11;99839.13;;;2.25;90.04
55675;BME280;41562;44.330;23.802;2023-01-31T05:18:39;99838.44;;;1.88;90.88
55675;BME280;41562;44.330;23.802;2023-01-31T05:21:06;99833.50;;;1.91;90.34
55675;BME280;41562;44.330;23.802;2023-01-31T05:23:34;99835.03;;;1.69;90.73
55675;BME280;41562;44.330;23.802;2023-01-31T05:26:02;99839.41;;;1.75;91.86
55675;BME280;41562;44.330;23.802;2023-01-31T05:28:30;99832.19;;;1.52;94.03
55675;BME280;41562;44.330;23.802;2023-01-31T05:31:05;99832.88;;;1.48;93.92
55675;BME280;41562;44.330;23.802;2023-01-31T05:33:33;99842.50;;;1.72;96.66
55675;BME280;41562;44.330;23.802;2023-01-31T05:36:01;99832.06;;;1.77;92.66
55675;BME280;41562;44.330;23.802;2023-01-31T05:38:30;99838.41;;;1.76;92.65
55675;BME280;41562;44.330;23.802;2023-01-31T05:40:57;99838.66;;;1.86;90.07
55675;BME280;41562;44.330;23.802;2023-01-31T05:43:25;99842.78;;;1.82;90.59
55675;BME280;41562;44.330;23.802;2023-01-31T05:45:55;99836.66;;;1.70;94.08
55675;BME280;41562;44.330;23.802;2023-01-31T05:48:22;99836.97;;;2.03;97.22
55675;BME280;41562;44.330;23.802;2023-01-31T05:50:50;99833.50;;;1.91;97.06
55675;BME280;41562;44.330;23.802;2023-01-31T05:53:17;99837.75;;;1.92;94.95
55675;BME280;41562;44.330;23.802;2023-01-31T05:55:44;99851.13;;;1.79;97.08
55675;BME280;41562;44.330;23.802;2023-01-31T05:58:14;99848.00;;;1.71;94.73
55675;BME280;41562;44.330;23.802;2023-01-31T06:00:41;99859.16;;;1.84;96.21
55675;BME280;41562;44.330;23.802;2023-01-31T06:03:18;99858.44;;;1.77;96.66
55675;BME280;41562;44.330;23.802;2023-01-31T06:05:53;99869.72;;;1.66;94.54
55675;BME280;41562;44.330;23.802;2023-01-31T06:08:22;99878.97;;;1.57;95.30
55675;BME280;41562;44.330;23.802;2023-01-31T06:10:50;99876.03;;;1.65;95.27
55675;BME280;41562;44.330;23.802;2023-01-31T06:13:18;99876.69;;;1.60;95.21
55675;BME280;41562;44.330;23.802;2023-01-31T06:15:49;99871.22;;;1.92;93.76
55675;BME280;41562;44.330;23.802;2023-01-31T06:18:25;99881.31;;;2.25;91.47
55675;BME280;41562;44.330;23.802;2023-01-31T06:20:53;99880.72;;;2.88;90.08
55675;BME280;41562;44.330;23.802;2023-01-31T06:23:20;99898.50;;;3.39;88.54
55675;BME280;41562;44.330;23.802;2023-01-31T06:25:52;99901.50;;;3.82;83.38
55675;BME280;41562;44.330;23.802;2023-01-31T06:28:19;99906.81;;;3.71;83.39
55675;BME280;41562;44.330;23.802;2023-01-31T06:30:47;99905.50;;;3.10;86.59
55675;BME280;41562;44.330;23.802;2023-01-31T06:33:15;99897.91;;;2.78;86.84
55675;BME280;41562;44.330;23.802;2023-01-31T06:35:42;99901.81;;;2.64;89.03
55675;BME280;41562;44.330;23.802;2023-01-31T06:38:10;99912.69;;;2.45;89.52
55675;BME280;41562;44.330;23.802;2023-01-31T06:40:37;99912.94;;;2.66;92.58
55675;BME280;41562;44.330;23.802;2023-01-31T06:43:04;99924.78;;;2.75;91.13
55675;BME280;41562;44.330;23.802;2023-01-31T06:45:32;99924.34;;;3.02;89.51
55675;BME280;41562;44.330;23.802;2023-01-31T06:47:59;99927.09;;;3.30;86.50
55675;BME280;41562;44.330;23.802;2023-01-31T06:50:26;99924.78;;;4.25;86.40
55675;BME280;41562;44.330;23.802;2023-01-31T06:52:54;99911.94;;;4.79;82.21
55675;BME280;41562;44.330;23.802;2023-01-31T06:55:21;99924.63;;;5.49;77.63
55675;BME280;41562;44.330;23.802;2023-01-31T06:57:49;99918.59;;;6.19;73.09
55675;BME280;41562;44.330;23.802;2023-01-31T07:00:17;99932.72;;;6.24;73.13
55675;BME280;41562;44.330;23.802;2023-01-31T07:02:45;99932.47;;;6.84;81.73
55675;BME280;41562;44.330;23.802;2023-01-31T07:05:13;99936.16;;;6.83;70.80
55675;BME280;41562;44.330;23.802;2023-01-31T07:07:40;99940.41;;;7.16;68.97
55675;BME280;41562;44.330;23.802;2023-01-31T07:10:08;99955.28;;;7.54;67.77
55675;BME280;41562;44.330;23.802;2023-01-31T07:12:36;99954.91;;;7.88;66.49
55675;BME280;41562;44.330;23.802;2023-01-31T07:15:04;99962.34;;;7.81;66.62
55675;BME280;41562;44.330;23.802;2023-01-31T07:17:31;99953.63;;;7.43;66.50
55675;BME280;41562;44.330;23.802;2023-01-31T07:19:59;99954.09;;;7.35;67.51
55675;BME280;41562;44.330;23.802;2023-01-31T07:22:26;99958.19;;;7.11;70.99
55675;BME280;41562;44.330;23.802;2023-01-31T07:24:54;99959.28;;;6.51;69.44
55675;BME280;41562;44.330;23.802;2023-01-31T07:27:21;99966.88;;;6.69;69.75
55675;BME280;41562;44.330;23.802;2023-01-31T07:29:48;99970.88;;;7.41;67.71
55675;BME280;41562;44.330;23.802;2023-01-31T07:32:16;99977.13;;;6.82;68.78
55675;BME280;41562;44.330;23.802;2023-01-31T07:34:44;99976.28;;;6.50;69.81
55675;BME280;41562;44.330;23.802;2023-01-31T07:37:11;99980.00;;;6.81;68.70
55675;BME280;41562;44.330;23.802;2023-01-31T07:39:38;99972.56;;;6.51;69.80
55675;BME280;41562;44.330;23.802;2023-01-31T07:42:06;99972.66;;;6.61;75.25
55675;BME280;41562;44.330;23.802;2023-01-31T07:44:33;99972.16;;;6.96;69.07
55675;BME280;41562;44.330;23.802;2023-01-31T07:47:00;99972.47;;;7.00;68.02
55675;BME280;41562;44.330;23.802;2023-01-31T07:49:28;99979.69;;;7.09;68.27
55675;BME280;41562;44.330;23.802;2023-01-31T07:51:55;99982.13;;;8.00;67.86
55675;BME280;41562;44.330;23.802;2023-01-31T07:54:24;99982.09;;;7.95;69.01
55675;BME280;41562;44.330;23.802;2023-01-31T07:56:51;99968.72;;;8.47;63.38
55675;BME280;41562;44.330;23.802;2023-01-31T07:59:18;99967.69;;;7.86;65.71
55675;BME280;41562;44.330;23.802;2023-01-31T08:01:46;99975.44;;;7.92;66.18
55675;BME280;41562;44.330;23.802;2023-01-31T08:04:17;99980.84;;;8.13;67.15
55675;BME280;41562;44.330;23.802;2023-01-31T08:06:50;99985.81;;;7.89;65.62
55675;BME280;41562;44.330;23.802;2023-01-31T08:09:20;99995.91;;;7.92;65.16
55675;BME280;41562;44.330;23.802;2023-01-31T08:11:47;99994.88;;;7.98;64.78
55675;BME280;41562;44.330;23.802;2023-01-31T08:14:15;99983.75;;;8.11;67.76
55675;BME280;41562;44.330;23.802;2023-01-31T08:16:42;99990.22;;;8.25;64.65
55675;BME280;41562;44.330;23.802;2023-01-31T08:19:09;99978.19;;;8.18;65.55
55675;BME280;41562;44.330;23.802;2023-01-31T08:21:36;99979.53;;;8.15;70.41
55675;BME280;41562;44.330;23.802;2023-01-31T08:24:04;99979.94;;;8.79;63.83
55675;BME280;41562;44.330;23.802;2023-01-31T08:26:31;99983.44;;;8.90;63.63
55675;BME280;41562;44.330;23.802;2023-01-31T08:28:59;99970.34;;;9.24;61.87
55675;BME280;41562;44.330;23.802;2023-01-31T08:31:27;99973.28;;;9.27;65.10
55675;BME280;41562;44.330;23.802;2023-01-31T08:33:55;99971.09;;;9.65;63.30
55675;BME280;41562;44.330;23.802;2023-01-31T08:36:24;99971.75;;;10.11;59.69
55675;BME280;41562;44.330;23.802;2023-01-31T08:38:52;99974.00;;;10.38;58.53
55675;BME280;41562;44.330;23.802;2023-01-31T08:41:21;99968.66;;;10.43;60.05
55675;BME280;41562;44.330;23.802;2023-01-31T08:43:49;99967.41;;;10.25;60.19
55675;BME280;41562;44.330;23.802;2023-01-31T08:46:30;99979.59;;;9.77;58.66
55675;BME280;41562;44.330;23.802;2023-01-31T08:49:03;99986.09;;;8.95;62.51
55675;BME280;41562;44.330;23.802;2023-01-31T08:51:31;99989.53;;;8.65;73.46
55675;BME280;41562;44.330;23.802;2023-01-31T08:53:59;99987.13;;;8.64;67.02
55675;BME280;41562;44.330;23.802;2023-01-31T08:56:27;99992.72;;;8.67;64.95
55675;BME280;41562;44.330;23.802;2023-01-31T08:58:54;99989.50;;;8.45;65.19
55675;BME280;41562;44.330;23.802;2023-01-31T09:01:21;99986.31;;;8.53;65.06
55675;BME280;41562;44.330;23.802;2023-01-31T09:03:49;99988.69;;;8.39;69.66
55675;BME280;41562;44.330;23.802;2023-01-31T09:06:19;99989.06;;;10.14;62.11
55675;BME280;41562;44.330;23.802;2023-01-31T09:08:47;99978.38;;;9.19;63.01
55675;BME280;41562;44.330;23.802;2023-01-31T09:11:14;99983.44;;;9.15;64.04
55675;BME280;41562;44.330;23.802;2023-01-31T09:13:42;99989.25;;;9.43;68.91
55675;BME280;41562;44.330;23.802;2023-01-31T09:16:11;99988.22;;;9.23;65.71
55675;BME280;41562;44.330;23.802;2023-01-31T09:18:40;100002.31;;;8.63;64.72
55675;BME280;41562;44.330;23.802;2023-01-31T09:21:09;100010.00;;;8.44;65.67
55675;BME280;41562;44.330;23.802;2023-01-31T09:23:37;100000.50;;;8.89;68.83
55675;BME280;41562;44.330;23.802;2023-01-31T09:26:09;100010.09;;;8.95;65.15
55675;BME280;41562;44.330;23.802;2023-01-31T09:28:54;100002.38;;;8.83;65.52
55675;BME280;41562;44.330;23.802;2023-01-31T09:31:23;100001.28;;;8.79;65.84
55675;BME280;41562;44.330;23.802;2023-01-31T09:33:51;99996.78;;;8.90;69.43
55675;BME280;41562;44.330;23.802;2023-01-31T09:36:19;99989.31;;;9.07;66.17
55675;BME280;41562;44.330;23.802;2023-01-31T09:38:56;99999.69;;;9.19;64.19
55675;BME280;41562;44.330;23.802;2023-01-31T09:41:34;99989.81;;;8.69;72.66
55675;BME280;41562;44.330;23.802;2023-01-31T09:46:38;99983.97;;;8.87;65.14
55675;BME280;41562;44.330;23.802;2023-01-31T09:49:14;99995.16;;;9.24;64.03
55675;BME280;41562;44.330;23.802;2023-01-31T09:51:42;99989.84;;;9.09;67.39
55675;BME280;41562;44.330;23.802;2023-01-31T09:54:18;99993.31;;;8.84;66.67
55675;BME280;41562;44.330;23.802;2023-01-31T09:56:59;99993.53;;;8.63;67.52
55675;BME280;41562;44.330;23.802;2023-01-31T09:59:34;99993.03;;;8.81;66.90
55675;BME280;41562;44.330;23.802;2023-01-31T10:02:22;99994.66;;;9.02;72.83
55675;BME280;41562;44.330;23.802;2023-01-31T10:05:25;99997.53;;;8.85;68.98
55675;BME280;41562;44.330;23.802;2023-01-31T10:07:59;99991.97;;;8.82;65.20
55675;BME280;41562;44.330;23.802;2023-01-31T10:10:38;99990.88;;;8.68;66.58
55675;BME280;41562;44.330;23.802;2023-01-31T10:13:30;99983.19;;;8.97;72.37
55675;BME280;41562;44.330;23.802;2023-01-31T10:16:04;99983.97;;;9.02;67.21
55675;BME280;41562;44.330;23.802;2023-01-31T10:18:36;99979.63;;;9.67;67.92
55675;BME280;41562;44.330;23.802;2023-01-31T10:21:12;99979.03;;;10.49;68.01
55675;BME280;41562;44.330;23.802;2023-01-31T10:23:47;99972.97;;;11.41;61.07
55675;BME280;41562;44.330;23.802;2023-01-31T10:26:21;99977.63;;;12.68;57.07
55675;BME280;41562;44.330;23.802;2023-01-31T10:29:16;99978.81;;;10.41;60.61
55675;BME280;41562;44.330;23.802;2023-01-31T10:31:50;99970.63;;;9.33;64.50
55675;BME280;41562;44.330;23.802;2023-01-31T10:34:41;99973.56;;;9.16;67.87
55675;BME280;41562;44.330;23.802;2023-01-31T10:39:53;99979.00;;;8.28;67.13
55675;BME280;41562;44.330;23.802;2023-01-31T10:42:34;99988.56;;;8.14;76.79
55675;BME280;41562;44.330;23.802;2023-01-31T10:47:38;99978.91;;;8.03;68.40
55675;BME280;41562;44.330;23.802;2023-01-31T10:50:42;99968.31;;;8.08;67.35
55675;BME280;41562;44.330;23.802;2023-01-31T10:59:01;99971.81;;;8.24;65.48
55675;BME280;41562;44.330;23.802;2023-01-31T11:01:31;99973.75;;;8.38;64.97
55675;BME280;41562;44.330;23.802;2023-01-31T11:04:00;99969.00;;;8.51;66.73
55675;BME280;41562;44.330;23.802;2023-01-31T11:06:28;99965.78;;;8.54;63.17
55675;BME280;41562;44.330;23.802;2023-01-31T11:08:58;99967.03;;;8.21;62.80
55675;BME280;41562;44.330;23.802;2023-01-31T11:11:28;99966.41;;;7.98;64.37
55675;BME280;41562;44.330;23.802;2023-01-31T11:13:58;99955.56;;;8.25;67.91
55675;BME280;41562;44.330;23.802;2023-01-31T11:16:29;99960.03;;;8.09;64.54
55675;BME280;41562;44.330;23.802;2023-01-31T11:18:58;99958.72;;;8.02;64.15
55675;BME280;41562;44.330;23.802;2023-01-31T11:21:32;99961.88;;;7.94;64.09
55675;BME280;41562;44.330;23.802;2023-01-31T11:26:34;99961.28;;;7.87;65.02
55675;BME280;41562;44.330;23.802;2023-01-31T11:29:08;99955.97;;;7.87;65.79
55675;BME280;41562;44.330;23.802;2023-01-31T11:31:40;99954.56;;;7.69;67.87
55675;BME280;41562;44.330;23.802;2023-01-31T11:34:26;99960.78;;;7.90;68.36
55675;BME280;41562;44.330;23.802;2023-01-31T11:37:08;99958.66;;;7.92;66.85
55675;BME280;41562;44.330;23.802;2023-01-31T11:39:39;99964.50;;;8.76;65.26
55675;BME280;41562;44.330;23.802;2023-01-31T11:42:15;99955.44;;;8.87;67.67
55675;BME280;41562;44.330;23.802;2023-01-31T11:45:03;99956.22;;;9.13;68.17
55675;BME280;41562;44.330;23.802;2023-01-31T11:47:41;99949.25;;;9.48;62.53
55675;BME280;41562;44.330;23.802;2023-01-31T11:50:21;99951.28;;;9.76;61.89
55675;BME280;41562;44.330;23.802;2023-01-31T11:52:56;99939.50;;;9.92;63.91
55675;BME280;41562;44.330;23.802;2023-01-31T11:55:24;99943.34;;;10.25;62.98
55675;BME280;41562;44.330;23.802;2023-01-31T11:57:57;99943.69;;;10.08;60.50
55675;BME280;41562;44.330;23.802;2023-01-31T12:00:27;99938.44;;;9.88;60.11
55675;BME280;41562;44.330;23.802;2023-01-31T12:03:06;99935.03;;;9.73;60.75
55675;BME280;41562;44.330;23.802;2023-01-31T12:05:38;99937.72;;;9.62;61.87
55675;BME280;41562;44.330;23.802;2023-01-31T12:08:26;99935.22;;;9.91;58.93
55675;BME280;41562;44.330;23.802;2023-01-31T12:10:56;99929.53;;;9.18;60.33
55675;BME280;41562;44.330;23.802;2023-01-31T12:13:25;99930.38;;;8.99;63.37
55675;BME280;41562;44.330;23.802;2023-01-31T12:16:03;99931.19;;;8.89;63.05
55675;BME280;41562;44.330;23.802;2023-01-31T12:21:14;99931.97;;;9.10;60.32
55675;BME280;41562;44.330;23.802;2023-01-31T12:29:32;99931.31;;;9.63;59.73
55675;BME280;41562;44.330;23.802;2023-01-31T12:32:07;99922.88;;;9.21;58.69
55675;BME280;41562;44.330;23.802;2023-01-31T12:43:04;99926.63;;;9.05;64.38
55675;BME280;41562;44.330;23.802;2023-01-31T12:45:55;99921.56;;;8.93;62.62
55675;BME280;41562;44.330;23.802;2023-01-31T12:48:36;99926.66;;;8.59;60.78
55675;BME280;41562;44.330;23.802;2023-01-31T12:54:02;99928.53;;;8.84;61.48
55675;BME280;41562;44.330;23.802;2023-01-31T13:05:17;99923.47;;;9.87;67.77
55675;BME280;41562;44.330;23.802;2023-01-31T13:07:53;99925.63;;;10.78;55.75
55675;BME280;41562;44.330;23.802;2023-01-31T13:12:53;99925.78;;;9.40;60.03
55675;BME280;41562;44.330;23.802;2023-01-31T13:18:40;99931.69;;;9.11;59.60
55675;BME280;41562;44.330;23.802;2023-01-31T13:21:13;99942.13;;;8.98;59.64
55675;BME280;41562;44.330;23.802;2023-01-31T13:23:45;99935.16;;;9.27;58.34
55675;BME280;41562;44.330;23.802;2023-01-31T13:26:14;99935.69;;;8.99;59.73
55675;BME280;41562;44.330;23.802;2023-01-31T13:31:34;99945.56;;;8.58;59.03
55675;BME280;41562;44.330;23.802;2023-01-31T13:34:24;99947.69;;;8.81;59.42
55675;BME280;41562;44.330;23.802;2023-01-31T13:36:58;99952.25;;;8.91;60.71
55675;BME280;41562;44.330;23.802;2023-01-31T13:39:39;99943.44;;;9.00;60.11
55675;BME280;41562;44.330;23.802;2023-01-31T13:42:14;99951.69;;;8.99;60.31
55675;BME280;41562;44.330;23.802;2023-01-31T13:44:42;99962.66;;;9.02;60.75
55675;BME280;41562;44.330;23.802;2023-01-31T13:47:22;99969.31;;;9.00;59.83
55675;BME280;41562;44.330;23.802;2023-01-31T13:50:01;99967.97;;;8.97;59.69
55675;BME280;41562;44.330;23.802;2023-01-31T13:52:35;99963.97;;;8.90;59.28
55675;BME280;41562;44.330;23.802;2023-01-31T13:55:13;99967.41;;;8.75;65.15
55675;BME280;41562;44.330;23.802;2023-01-31T13:57:43;99971.66;;;8.61;61.14
55675;BME280;41562;44.330;23.802;2023-01-31T14:13:45;99973.50;;;8.45;70.85
55675;BME280;41562;44.330;23.802;2023-01-31T14:16:37;99969.97;;;8.29;65.70
55675;BME280;41562;44.330;23.802;2023-01-31T14:21:54;99976.88;;;8.25;65.48
55675;BME280;41562;44.330;23.802;2023-01-31T14:32:40;99975.28;;;8.29;63.80
55675;BME280;41562;44.330;23.802;2023-01-31T14:40:28;99969.75;;;7.74;67.36
55675;BME280;41562;44.330;23.802;2023-01-31T14:58:01;99989.81;;;7.44;69.30
55675;BME280;41562;44.330;23.802;2023-01-31T15:00:34;99998.66;;;7.18;69.27
55675;BME280;41562;44.330;23.802;2023-01-31T15:03:06;100003.63;;;7.46;75.61
55675;BME280;41562;44.330;23.802;2023-01-31T15:05:45;100000.38;;;7.34;71.32
55675;BME280;41562;44.330;23.802;2023-01-31T15:14:08;100012.44;;;7.15;74.98
55675;BME280;41562;44.330;23.802;2023-01-31T15:16:31;100002.72;;;7.25;73.95
55675;BME280;41562;44.330;23.802;2023-01-31T15:21:51;100009.72;;;6.78;69.91
55675;BME280;41562;44.330;23.802;2023-01-31T15:24:31;100010.97;;;6.97;74.49
55675;BME280;41562;44.330;23.802;2023-01-31T15:27:01;100014.00;;;6.79;70.17
55675;BME280;41562;44.330;23.802;2023-01-31T15:29:51;100020.47;;;6.61;70.22
55675;BME280;41562;44.330;23.802;2023-01-31T15:32:23;100026.41;;;6.46;70.43
55675;BME280;41562;44.330;23.802;2023-01-31T15:34:56;100028.81;;;6.48;71.49